sensor_id;sensor_type;location;lat;lon;timestamp;P1;durP1;ratioP1;P2;durP2;ratioP2
63193;SDS011;49289;51.670;5.624;2022-08-19T00:01:00;22.60;;;19.10;;
63193;SDS011;49289;51.670;5.624;2022-08-19T00:02:33;21.00;;;18.80;;
63193;SDS011;49289;51.670;5.624;2022-08-19T00:04:21;21.60;;;19.30;;
63193;SDS011;49289;51.670;5.624;2022-08-19T00:06:07;20.40;;;18.30;;
63193;SDS011;49289;51.670;5.624;2022-08-19T00:07:54;20.70;;;18.50;;
63193;SDS011;49289;51.670;5.624;2022-08-19T00:09:26;21.00;;;18.70;;
63193;SDS011;49289;51.670;5.624;2022-08-19T00:11:17;22.40;;;20.00;;
63193;SDS011;49289;51.670;5.624;2022-08-19T00:13:09;25.90;;;19.40;;
63193;SDS011;49289;51.670;5.624;2022-08-19T00:14:57;20.60;;;18.40;;
63193;SDS011;49289;51.670;5.624;2022-08-19T00:16:46;20.60;;;18.20;;
63193;SDS011;49289;51.670;5.624;2022-08-19T00:18:34;20.20;;;17.80;;
63193;SDS011;49289;51.670;5.624;2022-08-19T00:20:22;19.80;;;17.70;;
63193;SDS011;49289;51.670;5.624;2022-08-19T00:21:55;19.90;;;17.80;;
63193;SDS011;49289;51.670;5.624;2022-08-19T00:23:42;20.20;;;18.20;;
63193;SDS011;49289;51.670;5.624;2022-08-19T00:25:29;19.20;;;17.30;;
63193;SDS011;49289;51.670;5.624;2022-08-19T00:27:16;19.60;;;17.50;;
63193;SDS011;49289;51.670;5.624;2022-08-19T00:29:07;20.00;;;18.00;;
63193;SDS011;49289;51.670;5.624;2022-08-19T00:30:53;21.00;;;17.50;;
63193;SDS011;49289;51.670;5.624;2022-08-19T00:32:40;17.90;;;16.00;;
63193;SDS011;49289;51.670;5.624;2022-08-19T00:34:19;19.50;;;17.50;;
63193;SDS011;49289;51.670;5.624;2022-08-19T00:35:56;19.00;;;17.00;;
63193;SDS011;49289;51.670;5.624;2022-08-19T00:37:46;19.30;;;17.30;;
63193;SDS011;49289;51.670;5.624;2022-08-19T00:39:34;20.20;;;17.00;;
63193;SDS011;49289;51.670;5.624;2022-08-19T00:41:23;18.30;;;16.40;;
63193;SDS011;49289;51.670;5.624;2022-08-19T00:43:14;19.10;;;16.00;;
63193;SDS011;49289;51.670;5.624;2022-08-19T00:44:45;18.90;;;16.70;;
63193;SDS011;49289;51.670;5.624;2022-08-19T00:46:34;18.40;;;16.50;;
63193;SDS011;49289;51.670;5.624;2022-08-19T00:48:07;19.40;;;16.70;;
63193;SDS011;49289;51.670;5.624;2022-08-19T00:49:59;20.30;;;16.70;;
63193;SDS011;49289;51.670;5.624;2022-08-19T00:51:31;17.40;;;15.60;;
63193;SDS011;49289;51.670;5.624;2022-08-19T00:53:19;18.40;;;16.50;;
63193;SDS011;49289;51.670;5.624;2022-08-19T00:55:06;17.70;;;15.80;;
63193;SDS011;49289;51.670;5.624;2022-08-19T00:56:39;18.60;;;15.70;;
63193;SDS011;49289;51.670;5.624;2022-08-19T00:58:15;17.90;;;15.50;;
63193;SDS011;49289;51.670;5.624;2022-08-19T01:00:05;19.00;;;17.00;;
63193;SDS011;49289;51.670;5.624;2022-08-19T01:01:51;19.30;;;16.10;;
63193;SDS011;49289;51.670;5.624;2022-08-19T01:03:39;18.80;;;16.80;;
63193;SDS011;49289;51.670;5.624;2022-08-19T01:05:28;19.90;;;17.40;;
63193;SDS011;49289;51.670;5.624;2022-08-19T01:07:16;18.30;;;16.40;;
63193;SDS011;49289;51.670;5.624;2022-08-19T01:09:04;17.90;;;16.00;;
63193;SDS011;49289;51.670;5.624;2022-08-19T01:10:37;17.90;;;15.50;;
63193;SDS011;49289;51.670;5.624;2022-08-19T01:12:23;16.10;;;14.50;;
63193;SDS011;49289;51.670;5.624;2022-08-19T01:14:10;16.90;;;15.20;;
63193;SDS011;49289;51.670;5.624;2022-08-19T01:15:45;17.50;;;15.70;;
63193;SDS011;49289;51.670;5.624;2022-08-19T01:17:17;17.90;;;16.00;;
63193;SDS011;49289;51.670;5.624;2022-08-19T01:18:49;19.60;;;16.10;;
63193;SDS011;49289;51.670;5.624;2022-08-19T01:20:22;19.20;;;16.40;;
63193;SDS011;49289;51.670;5.624;2022-08-19T01:22:12;17.80;;;15.90;;
63193;SDS011;49289;51.670;5.624;2022-08-19T01:23:45;18.80;;;16.90;;
63193;SDS011;49289;51.670;5.624;2022-08-19T01:25:35;19.90;;;17.40;;
63193;SDS011;49289;51.670;5.624;2022-08-19T01:27:20;18.60;;;16.70;;
63193;SDS011;49289;51.670;5.624;2022-08-19T01:29:07;18.80;;;16.50;;
63193;SDS011;49289;51.670;5.624;2022-08-19T01:30:55;19.40;;;16.70;;
63193;SDS011;49289;51.670;5.624;2022-08-19T01:32:28;19.00;;;17.00;;
63193;SDS011;49289;51.670;5.624;2022-08-19T01:34:17;19.30;;;17.20;;
63193;SDS011;49289;51.670;5.624;2022-08-19T01:35:49;21.10;;;17.40;;
63193;SDS011;49289;51.670;5.624;2022-08-19T01:37:21;18.80;;;16.80;;
63193;SDS011;49289;51.670;5.624;2022-08-19T01:39:11;22.80;;;17.70;;
63193;SDS011;49289;51.670;5.624;2022-08-19T01:40:42;19.30;;;16.20;;
63193;SDS011;49289;51.670;5.624;2022-08-19T01:42:16;19.30;;;16.90;;
63193;SDS011;49289;51.670;5.624;2022-08-19T01:44:04;19.60;;;17.50;;
63193;SDS011;49289;51.670;5.624;2022-08-19T01:45:51;19.40;;;17.20;;
63193;SDS011;49289;51.670;5.624;2022-08-19T01:47:39;18.80;;;16.50;;
63193;SDS011;49289;51.670;5.624;2022-08-19T01:49:29;20.30;;;18.10;;
63193;SDS011;49289;51.670;5.624;2022-08-19T01:51:02;21.00;;;17.90;;
63193;SDS011;49289;51.670;5.624;2022-08-19T01:52:49;22.90;;;17.70;;
63193;SDS011;49289;51.670;5.624;2022-08-19T01:54:22;20.00;;;17.40;;
63193;SDS011;49289;51.670;5.624;2022-08-19T01:56:09;20.60;;;18.00;;
63193;SDS011;49289;51.670;5.624;2022-08-19T01:57:58;20.80;;;18.20;;
63193;SDS011;49289;51.670;5.624;2022-08-19T01:59:44;20.50;;;18.00;;
63193;SDS011;49289;51.670;5.624;2022-08-19T02:01:31;19.70;;;17.60;;
63193;SDS011;49289;51.670;5.624;2022-08-19T02:03:18;23.30;;;17.60;;
63193;SDS011;49289;51.670;5.624;2022-08-19T02:04:50;22.60;;;17.60;;
63193;SDS011;49289;51.670;5.624;2022-08-19T02:06:38;19.50;;;17.00;;
63193;SDS011;49289;51.670;5.624;2022-08-19T02:08:27;19.90;;;17.70;;
63193;SDS011;49289;51.670;5.624;2022-08-19T02:10:16;23.50;;;19.70;;
63193;SDS011;49289;51.670;5.624;2022-08-19T02:12:02;23.10;;;19.60;;
63193;SDS011;49289;51.670;5.624;2022-08-19T02:13:34;23.30;;;19.30;;
63193;SDS011;49289;51.670;5.624;2022-08-19T02:15:22;21.60;;;18.00;;
63193;SDS011;49289;51.670;5.624;2022-08-19T02:16:56;23.60;;;20.10;;
63193;SDS011;49289;51.670;5.624;2022-08-19T02:18:29;22.90;;;20.40;;
63193;SDS011;49289;51.670;5.624;2022-08-19T02:20:16;25.70;;;20.60;;
63193;SDS011;49289;51.670;5.624;2022-08-19T02:22:05;23.40;;;19.60;;
63193;SDS011;49289;51.670;5.624;2022-08-19T02:23:37;22.30;;;19.40;;
63193;SDS011;49289;51.670;5.624;2022-08-19T02:25:24;21.50;;;19.20;;
63193;SDS011;49289;51.670;5.624;2022-08-19T02:27:12;23.50;;;20.10;;
63193;SDS011;49289;51.670;5.624;2022-08-19T02:29:01;24.10;;;20.00;;
63193;SDS011;49289;51.670;5.624;2022-08-19T02:30:49;23.30;;;20.10;;
63193;SDS011;49289;51.670;5.624;2022-08-19T02:32:37;23.00;;;19.70;;
63193;SDS011;49289;51.670;5.624;2022-08-19T02:34:25;24.20;;;19.50;;
63193;SDS011;49289;51.670;5.624;2022-08-19T02:35:57;24.60;;;20.50;;
63193;SDS011;49289;51.670;5.624;2022-08-19T02:37:44;24.20;;;19.90;;
63193;SDS011;49289;51.670;5.624;2022-08-19T02:39:31;25.40;;;20.40;;
63193;SDS011;49289;51.670;5.624;2022-08-19T02:41:07;24.30;;;20.00;;
63193;SDS011;49289;51.670;5.624;2022-08-19T02:42:52;24.30;;;19.90;;
63193;SDS011;49289;51.670;5.624;2022-08-19T02:44:26;23.70;;;20.10;;
63193;SDS011;49289;51.670;5.624;2022-08-19T02:46:18;23.50;;;19.50;;
63193;SDS011;49289;51.670;5.624;2022-08-19T02:47:49;24.60;;;20.10;;
63193;SDS011;49289;51.670;5.624;2022-08-19T02:49:39;21.00;;;18.50;;
63193;SDS011;49289;51.670;5.624;2022-08-19T02:51:27;21.30;;;18.30;;
63193;SDS011;49289;51.670;5.624;2022-08-19T02:53:13;22.40;;;18.70;;
63193;SDS011;49289;51.670;5.624;2022-08-19T02:54:46;23.60;;;19.50;;
63193;SDS011;49289;51.670;5.624;2022-08-19T02:56:20;22.50;;;18.80;;
63193;SDS011;49289;51.670;5.624;2022-08-19T02:57:52;22.80;;;19.70;;
63193;SDS011;49289;51.670;5.624;2022-08-19T02:59:39;23.00;;;19.10;;
63193;SDS011;49289;51.670;5.624;2022-08-19T03:01:28;24.70;;;19.30;;
63193;SDS011;49289;51.670;5.624;2022-08-19T03:03:14;25.10;;;19.90;;
63193;SDS011;49289;51.670;5.624;2022-08-19T03:05:01;24.50;;;20.30;;
63193;SDS011;49289;51.670;5.624;2022-08-19T03:06:48;26.30;;;20.20;;
63193;SDS011;49289;51.670;5.624;2022-08-19T03:08:20;25.70;;;21.70;;
63193;SDS011;49289;51.670;5.624;2022-08-19T03:10:07;25.20;;;20.30;;
63193;SDS011;49289;51.670;5.624;2022-08-19T03:11:56;25.10;;;19.80;;
63193;SDS011;49289;51.670;5.624;2022-08-19T03:13:29;24.40;;;20.20;;
63193;SDS011;49289;51.670;5.624;2022-08-19T03:15:04;23.80;;;19.10;;
63193;SDS011;49289;51.670;5.624;2022-08-19T03:16:51;23.50;;;19.10;;
63193;SDS011;49289;51.670;5.624;2022-08-19T03:18:39;23.30;;;18.80;;
63193;SDS011;49289;51.670;5.624;2022-08-19T03:20:13;22.10;;;18.90;;
63193;SDS011;49289;51.670;5.624;2022-08-19T03:21:47;22.40;;;18.90;;
63193;SDS011;49289;51.670;5.624;2022-08-19T03:23:20;23.00;;;19.00;;
63193;SDS011;49289;51.670;5.624;2022-08-19T03:24:52;23.40;;;19.90;;
63193;SDS011;49289;51.670;5.624;2022-08-19T03:26:39;25.50;;;19.60;;
63193;SDS011;49289;51.670;5.624;2022-08-19T03:28:26;23.30;;;19.60;;
63193;SDS011;49289;51.670;5.624;2022-08-19T03:30:16;24.80;;;19.40;;
63193;SDS011;49289;51.670;5.624;2022-08-19T03:32:04;24.30;;;19.80;;
63193;SDS011;49289;51.670;5.624;2022-08-19T03:33:36;22.60;;;18.80;;
63193;SDS011;49289;51.670;5.624;2022-08-19T03:35:23;23.10;;;19.20;;
63193;SDS011;49289;51.670;5.624;2022-08-19T03:37:14;22.60;;;18.80;;
63193;SDS011;49289;51.670;5.624;2022-08-19T03:39:01;23.10;;;19.40;;
63193;SDS011;49289;51.670;5.624;2022-08-19T03:40:36;21.80;;;18.40;;
63193;SDS011;49289;51.670;5.624;2022-08-19T03:42:23;21.70;;;18.30;;
63193;SDS011;49289;51.670;5.624;2022-08-19T03:44:11;22.60;;;19.10;;
63193;SDS011;49289;51.670;5.624;2022-08-19T03:46:07;24.60;;;19.50;;
63193;SDS011;49289;51.670;5.624;2022-08-19T03:47:53;26.20;;;19.90;;
63193;SDS011;49289;51.670;5.624;2022-08-19T03:49:40;24.20;;;19.60;;
63193;SDS011;49289;51.670;5.624;2022-08-19T03:51:28;25.00;;;18.90;;
63193;SDS011;49289;51.670;5.624;2022-08-19T03:52:59;23.90;;;19.40;;
63193;SDS011;49289;51.670;5.624;2022-08-19T03:54:47;23.80;;;18.60;;
63193;SDS011;49289;51.670;5.624;2022-08-19T03:56:36;22.20;;;18.40;;
63193;SDS011;49289;51.670;5.624;2022-08-19T03:58:25;22.20;;;18.70;;
63193;SDS011;49289;51.670;5.624;2022-08-19T04:00:13;24.10;;;19.10;;
63193;SDS011;49289;51.670;5.624;2022-08-19T04:02:05;23.50;;;19.60;;
63193;SDS011;49289;51.670;5.624;2022-08-19T04:03:48;23.20;;;19.00;;
63193;SDS011;49289;51.670;5.624;2022-08-19T04:05:35;23.10;;;18.70;;
63193;SDS011;49289;51.670;5.624;2022-08-19T04:07:22;24.40;;;19.60;;
63193;SDS011;49289;51.670;5.624;2022-08-19T04:08:56;23.70;;;18.70;;
63193;SDS011;49289;51.670;5.624;2022-08-19T04:10:44;23.00;;;19.00;;
63193;SDS011;49289;51.670;5.624;2022-08-19T04:12:16;25.50;;;19.90;;
63193;SDS011;49289;51.670;5.624;2022-08-19T04:14:03;29.40;;;20.70;;
63193;SDS011;49289;51.670;5.624;2022-08-19T04:15:38;32.40;;;21.60;;
63193;SDS011;49289;51.670;5.624;2022-08-19T04:17:25;28.90;;;21.20;;
63193;SDS011;49289;51.670;5.624;2022-08-19T04:18:59;30.10;;;21.50;;
63193;SDS011;49289;51.670;5.624;2022-08-19T04:20:31;29.70;;;21.00;;
63193;SDS011;49289;51.670;5.624;2022-08-19T04:22:19;29.80;;;21.30;;
63193;SDS011;49289;51.670;5.624;2022-08-19T04:24:06;28.40;;;21.20;;
63193;SDS011;49289;51.670;5.624;2022-08-19T04:25:53;27.40;;;21.10;;
63193;SDS011;49289;51.670;5.624;2022-08-19T04:27:25;30.90;;;21.20;;
63193;SDS011;49289;51.670;5.624;2022-08-19T04:29:14;27.30;;;21.00;;
63193;SDS011;49289;51.670;5.624;2022-08-19T04:30:47;29.50;;;21.10;;
63193;SDS011;49289;51.670;5.624;2022-08-19T04:32:35;28.30;;;21.60;;
63193;SDS011;49289;51.670;5.624;2022-08-19T04:34:10;28.60;;;21.60;;
63193;SDS011;49289;51.670;5.624;2022-08-19T04:35:56;28.30;;;20.80;;
63193;SDS011;49289;51.670;5.624;2022-08-19T04:37:45;27.50;;;20.30;;
63193;SDS011;49289;51.670;5.624;2022-08-19T04:39:19;27.20;;;20.50;;
63193;SDS011;49289;51.670;5.624;2022-08-19T04:40:50;26.80;;;20.90;;
63193;SDS011;49289;51.670;5.624;2022-08-19T04:42:37;29.10;;;21.50;;
63193;SDS011;49289;51.670;5.624;2022-08-19T04:44:24;30.10;;;21.30;;
63193;SDS011;49289;51.670;5.624;2022-08-19T04:46:13;27.00;;;20.10;;
63193;SDS011;49289;51.670;5.624;2022-08-19T04:48:00;29.20;;;21.20;;
63193;SDS011;49289;51.670;5.624;2022-08-19T04:49:48;28.30;;;20.40;;
63193;SDS011;49289;51.670;5.624;2022-08-19T04:51:39;29.70;;;20.50;;
63193;SDS011;49289;51.670;5.624;2022-08-19T04:53:09;30.30;;;21.30;;
63193;SDS011;49289;51.670;5.624;2022-08-19T04:54:58;27.70;;;20.90;;
63193;SDS011;49289;51.670;5.624;2022-08-19T04:56:45;29.80;;;21.30;;
63193;SDS011;49289;51.670;5.624;2022-08-19T04:58:32;30.40;;;20.90;;
63193;SDS011;49289;51.670;5.624;2022-08-19T05:00:19;30.50;;;21.60;;
63193;SDS011;49289;51.670;5.624;2022-08-19T05:02:08;27.40;;;20.20;;
63193;SDS011;49289;51.670;5.624;2022-08-19T05:03:41;27.90;;;20.50;;
63193;SDS011;49289;51.670;5.624;2022-08-19T05:05:29;27.70;;;20.60;;
63193;SDS011;49289;51.670;5.624;2022-08-19T05:07:01;26.90;;;20.40;;
63193;SDS011;49289;51.670;5.624;2022-08-19T05:08:48;29.00;;;21.20;;
63193;SDS011;49289;51.670;5.624;2022-08-19T05:10:35;27.20;;;21.60;;
63193;SDS011;49289;51.670;5.624;2022-08-19T05:12:09;26.40;;;20.60;;
63193;SDS011;49289;51.670;5.624;2022-08-19T05:13:41;28.80;;;20.20;;
63193;SDS011;49289;51.670;5.624;2022-08-19T05:15:28;27.10;;;20.00;;
63193;SDS011;49289;51.670;5.624;2022-08-19T05:17:15;28.30;;;21.00;;
63193;SDS011;49289;51.670;5.624;2022-08-19T05:19:02;27.40;;;20.80;;
63193;SDS011;49289;51.670;5.624;2022-08-19T05:20:52;27.70;;;21.70;;
63193;SDS011;49289;51.670;5.624;2022-08-19T05:22:39;27.30;;;21.00;;
63193;SDS011;49289;51.670;5.624;2022-08-19T05:24:11;29.80;;;22.00;;
63193;SDS011;49289;51.670;5.624;2022-08-19T05:25:58;28.20;;;22.30;;
63193;SDS011;49289;51.670;5.624;2022-08-19T05:27:45;33.30;;;23.30;;
63193;SDS011;49289;51.670;5.624;2022-08-19T05:29:19;31.00;;;22.90;;
63193;SDS011;49289;51.670;5.624;2022-08-19T05:31:06;32.90;;;24.00;;
63193;SDS011;49289;51.670;5.624;2022-08-19T05:32:54;36.40;;;25.10;;
63193;SDS011;49289;51.670;5.624;2022-08-19T05:34:28;36.50;;;25.80;;
63193;SDS011;49289;51.670;5.624;2022-08-19T05:36:01;34.50;;;25.80;;
63193;SDS011;49289;51.670;5.624;2022-08-19T05:37:48;35.90;;;26.30;;
63193;SDS011;49289;51.670;5.624;2022-08-19T05:39:38;36.10;;;25.90;;
63193;SDS011;49289;51.670;5.624;2022-08-19T05:41:25;42.10;;;28.20;;
63193;SDS011;49289;51.670;5.624;2022-08-19T05:43:12;38.30;;;26.90;;
63193;SDS011;49289;51.670;5.624;2022-08-19T05:44:44;41.20;;;27.80;;
63193;SDS011;49289;51.670;5.624;2022-08-19T05:46:32;39.10;;;27.60;;
63193;SDS011;49289;51.670;5.624;2022-08-19T05:48:21;39.10;;;28.40;;
63193;SDS011;49289;51.670;5.624;2022-08-19T05:50:09;44.80;;;29.70;;
63193;SDS011;49289;51.670;5.624;2022-08-19T05:51:42;47.70;;;30.70;;
63193;SDS011;49289;51.670;5.624;2022-08-19T05:53:16;45.30;;;30.90;;
63193;SDS011;49289;51.670;5.624;2022-08-19T05:55:04;51.70;;;32.00;;
63193;SDS011;49289;51.670;5.624;2022-08-19T05:56:53;48.20;;;31.60;;
63193;SDS011;49289;51.670;5.624;2022-08-19T05:58:41;47.40;;;31.90;;
63193;SDS011;49289;51.670;5.624;2022-08-19T06:00:14;50.40;;;31.50;;
63193;SDS011;49289;51.670;5.624;2022-08-19T06:02:03;51.90;;;32.20;;
63193;SDS011;49289;51.670;5.624;2022-08-19T06:03:36;49.70;;;32.60;;
63193;SDS011;49289;51.670;5.624;2022-08-19T06:05:24;48.80;;;32.00;;
63193;SDS011;49289;51.670;5.624;2022-08-19T06:07:12;50.20;;;32.30;;
63193;SDS011;49289;51.670;5.624;2022-08-19T06:09:00;49.70;;;32.60;;
63193;SDS011;49289;51.670;5.624;2022-08-19T06:10:35;53.40;;;32.60;;
63193;SDS011;49289;51.670;5.624;2022-08-19T06:12:08;52.00;;;33.10;;
63193;SDS011;49289;51.670;5.624;2022-08-19T06:13:57;54.80;;;34.80;;
63193;SDS011;49289;51.670;5.624;2022-08-19T06:15:47;51.60;;;34.00;;
63193;SDS011;49289;51.670;5.624;2022-08-19T06:17:34;58.90;;;35.50;;
63193;SDS011;49289;51.670;5.624;2022-08-19T06:19:23;53.80;;;34.70;;
63193;SDS011;49289;51.670;5.624;2022-08-19T06:20:56;60.80;;;36.90;;
63193;SDS011;49289;51.670;5.624;2022-08-19T06:22:45;59.00;;;37.60;;
63193;SDS011;49289;51.670;5.624;2022-08-19T06:24:31;61.90;;;37.50;;
63193;SDS011;49289;51.670;5.624;2022-08-19T06:26:19;59.90;;;36.40;;
63193;SDS011;49289;51.670;5.624;2022-08-19T06:28:07;62.80;;;36.70;;
63193;SDS011;49289;51.670;5.624;2022-08-19T06:29:54;58.20;;;36.10;;
63193;SDS011;49289;51.670;5.624;2022-08-19T06:31:28;60.40;;;35.30;;
63193;SDS011;49289;51.670;5.624;2022-08-19T06:33:16;58.80;;;36.40;;
63193;SDS011;49289;51.670;5.624;2022-08-19T06:35:04;55.70;;;35.60;;
63193;SDS011;49289;51.670;5.624;2022-08-19T06:36:53;60.80;;;36.50;;
63193;SDS011;49289;51.670;5.624;2022-08-19T06:38:41;60.00;;;35.00;;
63193;SDS011;49289;51.670;5.624;2022-08-19T06:40:29;56.60;;;35.20;;
63193;SDS011;49289;51.670;5.624;2022-08-19T06:42:03;55.70;;;33.60;;
63193;SDS011;49289;51.670;5.624;2022-08-19T06:43:49;60.70;;;35.20;;
63193;SDS011;49289;51.670;5.624;2022-08-19T06:45:21;55.50;;;34.40;;
63193;SDS011;49289;51.670;5.624;2022-08-19T06:47:13;53.90;;;33.20;;
63193;SDS011;49289;51.670;5.624;2022-08-19T06:48:43;55.80;;;32.60;;
63193;SDS011;49289;51.670;5.624;2022-08-19T06:50:31;53.60;;;33.90;;
63193;SDS011;49289;51.670;5.624;2022-08-19T06:52:05;60.30;;;34.50;;
63193;SDS011;49289;51.670;5.624;2022-08-19T06:53:53;55.00;;;34.40;;
63193;SDS011;49289;51.670;5.624;2022-08-19T06:55:26;56.00;;;34.20;;
63193;SDS011;49289;51.670;5.624;2022-08-19T06:57:13;58.30;;;35.20;;
63193;SDS011;49289;51.670;5.624;2022-08-19T06:59:00;62.90;;;35.70;;
63193;SDS011;49289;51.670;5.624;2022-08-19T07:00:47;57.90;;;34.50;;
63193;SDS011;49289;51.670;5.624;2022-08-19T07:02:35;60.60;;;34.40;;
63193;SDS011;49289;51.670;5.624;2022-08-19T07:04:24;55.60;;;33.10;;
63193;SDS011;49289;51.670;5.624;2022-08-19T07:05:57;57.40;;;34.70;;
63193;SDS011;49289;51.670;5.624;2022-08-19T07:07:48;60.70;;;35.30;;
63193;SDS011;49289;51.670;5.624;2022-08-19T07:09:37;58.30;;;34.50;;
63193;SDS011;49289;51.670;5.624;2022-08-19T07:11:25;60.10;;;34.50;;
63193;SDS011;49289;51.670;5.624;2022-08-19T07:13:13;61.10;;;34.90;;
63193;SDS011;49289;51.670;5.624;2022-08-19T07:15:00;57.00;;;35.30;;
63193;SDS011;49289;51.670;5.624;2022-08-19T07:16:32;57.80;;;34.20;;
63193;SDS011;49289;51.670;5.624;2022-08-19T07:18:20;60.10;;;35.10;;
63193;SDS011;49289;51.670;5.624;2022-08-19T07:20:08;59.60;;;34.80;;
63193;SDS011;49289;51.670;5.624;2022-08-19T07:21:56;54.10;;;34.30;;
63193;SDS011;49289;51.670;5.624;2022-08-19T07:23:44;59.50;;;35.90;;
63193;SDS011;49289;51.670;5.624;2022-08-19T07:25:18;53.30;;;34.60;;
63193;SDS011;49289;51.670;5.624;2022-08-19T07:27:06;60.00;;;36.80;;
63193;SDS011;49289;51.670;5.624;2022-08-19T07:28:55;55.80;;;35.30;;
63193;SDS011;49289;51.670;5.624;2022-08-19T07:30:42;58.30;;;35.40;;
63193;SDS011;49289;51.670;5.624;2022-08-19T07:32:14;60.50;;;36.80;;
63193;SDS011;49289;51.670;5.624;2022-08-19T07:34:02;63.70;;;36.10;;
63193;SDS011;49289;51.670;5.624;2022-08-19T07:35:33;59.90;;;36.00;;
63193;SDS011;49289;51.670;5.624;2022-08-19T07:37:20;62.70;;;37.00;;
63193;SDS011;49289;51.670;5.624;2022-08-19T07:39:10;57.40;;;35.80;;
63193;SDS011;49289;51.670;5.624;2022-08-19T07:40:57;59.70;;;36.30;;
63193;SDS011;49289;51.670;5.624;2022-08-19T07:42:45;59.70;;;35.10;;
63193;SDS011;49289;51.670;5.624;2022-08-19T07:44:33;57.70;;;34.60;;
63193;SDS011;49289;51.670;5.624;2022-08-19T07:46:06;58.60;;;35.40;;
63193;SDS011;49289;51.670;5.624;2022-08-19T07:47:53;55.10;;;35.20;;
63193;SDS011;49289;51.670;5.624;2022-08-19T07:49:25;58.00;;;34.70;;
63193;SDS011;49289;51.670;5.624;2022-08-19T07:51:14;54.40;;;35.00;;
63193;SDS011;49289;51.670;5.624;2022-08-19T07:52:45;57.30;;;35.60;;
63193;SDS011;49289;51.670;5.624;2022-08-19T07:54:36;60.40;;;36.10;;
63193;SDS011;49289;51.670;5.624;2022-08-19T07:56:24;61.00;;;36.00;;
63193;SDS011;49289;51.670;5.624;2022-08-19T07:58:13;60.80;;;36.20;;
63193;SDS011;49289;51.670;5.624;2022-08-19T08:00:00;61.80;;;36.30;;
63193;SDS011;49289;51.670;5.624;2022-08-19T08:01:32;57.70;;;35.20;;
63193;SDS011;49289;51.670;5.624;2022-08-19T08:03:05;57.40;;;36.90;;
63193;SDS011;49289;51.670;5.624;2022-08-19T08:04:53;53.90;;;35.60;;
63193;SDS011;49289;51.670;5.624;2022-08-19T08:06:42;56.70;;;36.50;;
63193;SDS011;49289;51.670;5.624;2022-08-19T08:08:30;52.80;;;34.50;;
63193;SDS011;49289;51.670;5.624;2022-08-19T08:10:18;51.00;;;33.80;;
63193;SDS011;49289;51.670;5.624;2022-08-19T08:11:53;54.30;;;34.20;;
63193;SDS011;49289;51.670;5.624;2022-08-19T08:13:39;55.60;;;34.00;;
63193;SDS011;49289;51.670;5.624;2022-08-19T08:15:28;54.40;;;34.20;;
63193;SDS011;49289;51.670;5.624;2022-08-19T08:17:16;56.90;;;34.50;;
63193;SDS011;49289;51.670;5.624;2022-08-19T08:19:03;56.00;;;35.20;;
63193;SDS011;49289;51.670;5.624;2022-08-19T08:20:49;55.70;;;34.00;;
63193;SDS011;49289;51.670;5.624;2022-08-19T08:22:22;49.30;;;32.30;;
63193;SDS011;49289;51.670;5.624;2022-08-19T08:24:11;53.00;;;31.80;;
63193;SDS011;49289;51.670;5.624;2022-08-19T08:25:59;47.70;;;30.30;;
63193;SDS011;49289;51.670;5.624;2022-08-19T08:27:33;49.00;;;31.70;;
63193;SDS011;49289;51.670;5.624;2022-08-19T08:29:07;52.60;;;32.80;;
63193;SDS011;49289;51.670;5.624;2022-08-19T08:30:41;54.50;;;33.60;;
63193;SDS011;49289;51.670;5.624;2022-08-19T08:32:14;51.70;;;31.70;;
63193;SDS011;49289;51.670;5.624;2022-08-19T08:33:47;54.90;;;33.30;;
63193;SDS011;49289;51.670;5.624;2022-08-19T08:35:21;52.00;;;34.30;;
63193;SDS011;49289;51.670;5.624;2022-08-19T08:37:08;57.90;;;35.20;;
63193;SDS011;49289;51.670;5.624;2022-08-19T08:38:55;57.30;;;34.70;;
63193;SDS011;49289;51.670;5.624;2022-08-19T08:40:45;60.10;;;35.00;;
63193;SDS011;49289;51.670;5.624;2022-08-19T08:42:34;54.80;;;33.50;;
63193;SDS011;49289;51.670;5.624;2022-08-19T08:44:06;53.60;;;32.50;;
63193;SDS011;49289;51.670;5.624;2022-08-19T08:45:55;51.30;;;31.20;;
63193;SDS011;49289;51.670;5.624;2022-08-19T08:47:43;48.50;;;30.00;;
63193;SDS011;49289;51.670;5.624;2022-08-19T08:49:33;53.50;;;30.70;;
63193;SDS011;49289;51.670;5.624;2022-08-19T08:51:06;53.20;;;30.90;;
63193;SDS011;49289;51.670;5.624;2022-08-19T08:52:42;52.30;;;30.90;;
63193;SDS011;49289;51.670;5.624;2022-08-19T08:54:28;49.00;;;30.90;;
63193;SDS011;49289;51.670;5.624;2022-08-19T08:56:16;46.30;;;28.90;;
63193;SDS011;49289;51.670;5.624;2022-08-19T08:58:06;47.00;;;27.90;;
63193;SDS011;49289;51.670;5.624;2022-08-19T08:59:39;48.90;;;29.00;;
63193;SDS011;49289;51.670;5.624;2022-08-19T09:01:27;45.00;;;29.20;;
63193;SDS011;49289;51.670;5.624;2022-08-19T09:03:16;47.10;;;28.10;;
63193;SDS011;49289;51.670;5.624;2022-08-19T09:05:03;42.90;;;26.60;;
63193;SDS011;49289;51.670;5.624;2022-08-19T09:06:53;41.10;;;27.00;;
63193;SDS011;49289;51.670;5.624;2022-08-19T09:08:45;43.00;;;28.40;;
63193;SDS011;49289;51.670;5.624;2022-08-19T09:10:35;42.90;;;27.90;;
63193;SDS011;49289;51.670;5.624;2022-08-19T09:12:23;48.20;;;29.00;;
63193;SDS011;49289;51.670;5.624;2022-08-19T09:13:56;47.60;;;29.90;;
63193;SDS011;49289;51.670;5.624;2022-08-19T09:15:43;46.40;;;30.10;;
63193;SDS011;49289;51.670;5.624;2022-08-19T09:17:30;48.50;;;31.50;;
63193;SDS011;49289;51.670;5.624;2022-08-19T09:19:17;46.60;;;29.90;;
63193;SDS011;49289;51.670;5.624;2022-08-19T09:21:05;45.30;;;30.50;;
63193;SDS011;49289;51.670;5.624;2022-08-19T09:22:52;43.90;;;29.40;;
63193;SDS011;49289;51.670;5.624;2022-08-19T09:24:39;42.00;;;28.50;;
63193;SDS011;49289;51.670;5.624;2022-08-19T09:26:15;40.60;;;28.40;;
63193;SDS011;49289;51.670;5.624;2022-08-19T09:27:48;39.90;;;28.80;;
63193;SDS011;49289;51.670;5.624;2022-08-19T09:29:35;43.20;;;28.90;;
63193;SDS011;49289;51.670;5.624;2022-08-19T09:31:07;43.30;;;27.40;;
63193;SDS011;49289;51.670;5.624;2022-08-19T09:32:54;42.50;;;28.40;;
63193;SDS011;49289;51.670;5.624;2022-08-19T09:34:26;38.00;;;27.10;;
63193;SDS011;49289;51.670;5.624;2022-08-19T09:36:16;36.30;;;24.80;;
63193;SDS011;49289;51.670;5.624;2022-08-19T09:38:02;37.40;;;25.60;;
63193;SDS011;49289;51.670;5.624;2022-08-19T09:39:50;39.50;;;25.80;;
63193;SDS011;49289;51.670;5.624;2022-08-19T09:41:39;40.30;;;26.50;;
63193;SDS011;49289;51.670;5.624;2022-08-19T09:43:27;37.70;;;25.90;;
63193;SDS011;49289;51.670;5.624;2022-08-19T09:45:15;38.20;;;27.10;;
63193;SDS011;49289;51.670;5.624;2022-08-19T09:46:47;41.10;;;27.40;;
63193;SDS011;49289;51.670;5.624;2022-08-19T09:48:34;42.50;;;27.40;;
63193;SDS011;49289;51.670;5.624;2022-08-19T09:50:23;38.60;;;27.40;;
63193;SDS011;49289;51.670;5.624;2022-08-19T09:51:56;42.40;;;28.30;;
63193;SDS011;49289;51.670;5.624;2022-08-19T09:53:29;40.80;;;27.90;;
63193;SDS011;49289;51.670;5.624;2022-08-19T09:55:16;42.60;;;28.40;;
63193;SDS011;49289;51.670;5.624;2022-08-19T09:57:03;39.90;;;29.30;;
63193;SDS011;49289;51.670;5.624;2022-08-19T09:58:50;41.40;;;29.70;;
63193;SDS011;49289;51.670;5.624;2022-08-19T10:00:24;49.90;;;31.20;;
63193;SDS011;49289;51.670;5.624;2022-08-19T10:02:12;45.60;;;30.20;;
63193;SDS011;49289;51.670;5.624;2022-08-19T10:04:00;48.30;;;30.50;;